sensor_id;sensor_type;location;lat;lon;timestamp;pressure;altitude;pressure_sealevel;temperature;humidity
57094;BME280;42970;50.996;3.706;2023-07-29T00:02:17;47177.91;;;-146.65;95.00
57094;BME280;42970;50.996;3.706;2023-07-29T00:04:43;47177.91;;;-146.65;95.01
57094;BME280;42970;50.996;3.706;2023-07-29T00:07:11;47175.91;;;-146.65;94.72
57094;BME280;42970;50.996;3.706;2023-07-29T00:09:36;47175.91;;;-146.65;95.20
57094;BME280;42970;50.996;3.706;2023-07-29T00:12:03;47175.91;;;-146.65;95.42
57094;BME280;42970;50.996;3.706;2023-07-29T00:14:29;47173.91;;;-146.65;95.52
57094;BME280;42970;50.996;3.706;2023-07-29T00:16:54;47179.91;;;-146.65;95.86
57094;BME280;42970;50.996;3.706;2023-07-29T00:19:19;47177.91;;;-146.65;95.88
57094;BME280;42970;50.996;3.706;2023-07-29T00:21:48;47175.91;;;-146.65;95.82
57094;BME280;42970;50.996;3.706;2023-07-29T00:24:13;47175.91;;;-146.65;95.96
57094;BME280;42970;50.996;3.706;2023-07-29T00:26:39;47177.91;;;-146.65;96.02
57094;BME280;42970;50.996;3.706;2023-07-29T00:29:04;47175.91;;;-146.65;96.05
57094;BME280;42970;50.996;3.706;2023-07-29T00:31:29;47173.91;;;-146.65;96.29
57094;BME280;42970;50.996;3.706;2023-07-29T00:33:55;47175.91;;;-146.65;96.72
57094;BME280;42970;50.996;3.706;2023-07-29T00:36:20;47171.91;;;-146.65;96.77
57094;BME280;42970;50.996;3.706;2023-07-29T00:38:46;47175.91;;;-146.65;97.04
57094;BME280;42970;50.996;3.706;2023-07-29T00:41:11;47177.91;;;-146.65;96.67
57094;BME280;42970;50.996;3.706;2023-07-29T00:43:38;47175.91;;;-146.65;96.99
57094;BME280;42970;50.996;3.706;2023-07-29T00:46:03;47175.91;;;-146.65;96.92
57094;BME280;42970;50.996;3.706;2023-07-29T00:48:29;47175.91;;;-146.65;97.26
57094;BME280;42970;50.996;3.706;2023-07-29T00:50:54;47177.91;;;-146.65;97.62
57094;BME280;42970;50.996;3.706;2023-07-29T00:53:20;47177.91;;;-146.65;98.19
57094;BME280;42970;50.996;3.706;2023-07-29T00:55:45;47179.91;;;-146.65;97.95
57094;BME280;42970;50.996;3.706;2023-07-29T00:58:11;47175.91;;;-146.65;98.37
57094;BME280;42970;50.996;3.706;2023-07-29T01:00:37;47175.91;;;-146.65;98.52
57094;BME280;42970;50.996;3.706;2023-07-29T01:03:02;47175.91;;;-146.65;98.64
57094;BME280;42970;50.996;3.706;2023-07-29T01:05:30;47173.91;;;-146.65;98.54
57094;BME280;42970;50.996;3.706;2023-07-29T01:07:59;47173.91;;;-146.65;98.72
57094;BME280;42970;50.996;3.706;2023-07-29T01:10:51;47175.91;;;-146.65;98.54
57094;BME280;42970;50.996;3.706;2023-07-29T01:13:25;47177.91;;;-146.65;98.72
57094;BME280;42970;50.996;3.706;2023-07-29T01:15:56;47177.91;;;-146.65;99.12
57094;BME280;42970;50.996;3.706;2023-07-29T01:18:26;47177.91;;;-146.65;99.33
57094;BME280;42970;50.996;3.706;2023-07-29T01:20:54;47181.91;;;-146.65;99.42
57094;BME280;42970;50.996;3.706;2023-07-29T01:23:29;47173.91;;;-146.65;99.52
57094;BME280;42970;50.996;3.706;2023-07-29T01:25:54;47175.91;;;-146.65;99.86
57094;BME280;42970;50.996;3.706;2023-07-29T01:28:20;47173.91;;;-146.65;99.46
57094;BME280;42970;50.996;3.706;2023-07-29T01:30:45;47175.91;;;-146.65;99.37
57094;BME280;42970;50.996;3.706;2023-07-29T01:33:15;47175.91;;;-146.65;99.56
57094;BME280;42970;50.996;3.706;2023-07-29T01:35:42;47177.91;;;-146.65;99.58
57094;BME280;42970;50.996;3.706;2023-07-29T01:38:09;47177.91;;;-146.65;99.76
57094;BME280;42970;50.996;3.706;2023-07-29T01:40:38;47175.91;;;-146.65;100.00
57094;BME280;42970;50.996;3.706;2023-07-29T01:43:04;47177.91;;;-146.65;100.00
57094;BME280;42970;50.996;3.706;2023-07-29T01:45:32;47175.91;;;-146.65;100.00
57094;BME280;42970;50.996;3.706;2023-07-29T01:48:01;47175.91;;;-146.65;100.00
57094;BME280;42970;50.996;3.706;2023-07-29T01:50:28;47177.91;;;-146.65;100.00
57094;BME280;42970;50.996;3.706;2023-07-29T01:52:53;47175.91;;;-146.65;100.00
57094;BME280;42970;50.996;3.706;2023-07-29T01:55:18;47173.91;;;-146.65;100.00
57094;BME280;42970;50.996;3.706;2023-07-29T01:57:44;47179.91;;;-146.65;100.00
57094;BME280;42970;50.996;3.706;2023-07-29T02:00:10;47175.91;;;-146.65;100.00
57094;BME280;42970;50.996;3.706;2023-07-29T02:02:35;47175.91;;;-146.65;100.00
57094;BME280;42970;50.996;3.706;2023-07-29T02:05:00;47177.91;;;-146.65;100.00
57094;BME280;42970;50.996;3.706;2023-07-29T02:07:26;47177.91;;;-146.65;100.00
57094;BME280;42970;50.996;3.706;2023-07-29T02:09:51;47179.91;;;-146.65;100.00
57094;BME280;42970;50.996;3.706;2023-07-29T02:12:17;47175.91;;;-146.65;100.00
57094;BME280;42970;50.996;3.706;2023-07-29T02:14:42;47179.91;;;-146.65;100.00
57094;BME280;42970;50.996;3.706;2023-07-29T02:17:07;47175.91;;;-146.65;100.00
57094;BME280;42970;50.996;3.706;2023-07-29T02:19:33;47177.91;;;-146.65;100.00
57094;BME280;42970;50.996;3.706;2023-07-29T02:21:59;47175.91;;;-146.65;100.00
57094;BME280;42970;50.996;3.706;2023-07-29T02:24:24;47173.91;;;-146.65;100.00
57094;BME280;42970;50.996;3.706;2023-07-29T02:26:49;47179.91;;;-146.65;100.00
57094;BME280;42970;50.996;3.706;2023-07-29T02:29:15;47173.91;;;-146.65;100.00
57094;BME280;42970;50.996;3.706;2023-07-29T02:31:40;47183.91;;;-146.65;100.00
57094;BME280;42970;50.996;3.706;2023-07-29T02:34:05;47177.91;;;-146.65;100.00
57094;BME280;42970;50.996;3.706;2023-07-29T02:36:31;47177.91;;;-146.65;100.00
57094;BME280;42970;50.996;3.706;2023-07-29T02:38:56;47175.91;;;-146.65;100.00
57094;BME280;42970;50.996;3.706;2023-07-29T02:41:21;47175.91;;;-146.65;100.00
57094;BME280;42970;50.996;3.706;2023-07-29T02:43:50;47177.91;;;-146.65;100.00
57094;BME280;42970;50.996;3.706;2023-07-29T02:46:15;47173.91;;;-146.65;100.00
57094;BME280;42970;50.996;3.706;2023-07-29T02:48:41;47177.91;;;-146.65;100.00
57094;BME280;42970;50.996;3.706;2023-07-29T02:51:07;47179.91;;;-146.65;100.00
57094;BME280;42970;50.996;3.706;2023-07-29T02:53:32;47183.91;;;-146.65;100.00
57094;BME280;42970;50.996;3.706;2023-07-29T02:55:57;47177.91;;;-146.65;100.00
57094;BME280;42970;50.996;3.706;2023-07-29T02:58:23;47177.91;;;-146.65;100.00
57094;BME280;42970;50.996;3.706;2023-07-29T03:00:48;47181.91;;;-146.65;100.00
57094;BME280;42970;50.996;3.706;2023-07-29T03:03:13;47181.91;;;-146.65;100.00
57094;BME280;42970;50.996;3.706;2023-07-29T03:05:39;47175.91;;;-146.65;100.00
57094;BME280;42970;50.996;3.706;2023-07-29T03:08:04;47175.91;;;-146.65;100.00
57094;BME280;42970;50.996;3.706;2023-07-29T03:10:30;47177.91;;;-146.65;100.00
57094;BME280;42970;50.996;3.706;2023-07-29T03:12:55;47175.91;;;-146.65;100.00
57094;BME280;42970;50.996;3.706;2023-07-29T03:15:24;47179.91;;;-146.65;100.00
57094;BME280;42970;50.996;3.706;2023-07-29T03:17:50;47173.91;;;-146.65;100.00
57094;BME280;42970;50.996;3.706;2023-07-29T03:20:15;47173.91;;;-146.65;100.00
57094;BME280;42970;50.996;3.706;2023-07-29T03:22:42;47179.91;;;-146.65;100.00
57094;BME280;42970;50.996;3.706;2023-07-29T03:25:08;47171.91;;;-146.65;100.00
57094;BME280;42970;50.996;3.706;2023-07-29T03:27:33;47173.91;;;-146.65;100.00
57094;BME280;42970;50.996;3.706;2023-07-29T03:30:01;47177.91;;;-146.65;100.00
57094;BME280;42970;50.996;3.706;2023-07-29T03:32:26;47177.91;;;-146.65;100.00
57094;BME280;42970;50.996;3.706;2023-07-29T03:34:52;47177.91;;;-146.65;100.00
57094;BME280;42970;50.996;3.706;2023-07-29T03:37:17;47175.91;;;-146.65;100.00
57094;BME280;42970;50.996;3.706;2023-07-29T03:39:42;47177.91;;;-146.65;100.00
57094;BME280;42970;50.996;3.706;2023-07-29T03:42:08;47177.91;;;-146.65;100.00
57094;BME280;42970;50.996;3.706;2023-07-29T03:44:33;47177.91;;;-146.65;100.00
57094;BME280;42970;50.996;3.706;2023-07-29T03:47:00;47169.91;;;-146.65;100.00
57094;BME280;42970;50.996;3.706;2023-07-29T03:49:25;47173.91;;;-146.65;100.00
57094;BME280;42970;50.996;3.706;2023-07-29T03:51:51;47173.91;;;-146.65;100.00
57094;BME280;42970;50.996;3.706;2023-07-29T03:54:16;47177.91;;;-146.65;100.00
57094;BME280;42970;50.996;3.706;2023-07-29T03:56:41;47177.91;;;-146.65;100.00
57094;BME280;42970;50.996;3.706;2023-07-29T03:59:07;47173.91;;;-146.65;100.00
57094;BME280;42970;50.996;3.706;2023-07-29T04:01:32;47179.91;;;-146.65;100.00
57094;BME280;42970;50.996;3.706;2023-07-29T04:03:58;47173.91;;;-146.65;100.00
57094;BME280;42970;50.996;3.706;2023-07-29T04:06:23;47171.91;;;-146.65;100.00
57094;BME280;42970;50.996;3.706;2023-07-29T04:08:49;47177.91;;;-146.65;100.00
57094;BME280;42970;50.996;3.706;2023-07-29T04:11:14;47171.91;;;-146.65;100.00
57094;BME280;42970;50.996;3.706;2023-07-29T04:13:40;47177.91;;;-146.65;100.00
57094;BME280;42970;50.996;3.706;2023-07-29T04:16:05;47175.91;;;-146.65;100.00
57094;BME280;42970;50.996;3.706;2023-07-29T04:18:30;47173.91;;;-146.65;100.00
57094;BME280;42970;50.996;3.706;2023-07-29T04:20:56;47177.91;;;-146.65;100.00
57094;BME280;42970;50.996;3.706;2023-07-29T04:23:21;47177.91;;;-146.65;100.00
57094;BME280;42970;50.996;3.706;2023-07-29T04:25:47;47175.91;;;-146.65;100.00
57094;BME280;42970;50.996;3.706;2023-07-29T04:28:12;47173.91;;;-146.65;100.00
57094;BME280;42970;50.996;3.706;2023-07-29T04:30:37;47175.91;;;-146.65;100.00
57094;BME280;42970;50.996;3.706;2023-07-29T04:33:02;47177.91;;;-146.65;100.00
57094;BME280;42970;50.996;3.706;2023-07-29T04:35:28;47177.91;;;-146.65;100.00
57094;BME280;42970;50.996;3.706;2023-07-29T04:37:53;47177.91;;;-146.65;100.00
57094;BME280;42970;50.996;3.706;2023-07-29T04:40:18;47177.91;;;-146.65;100.00
57094;BME280;42970;50.996;3.706;2023-07-29T04:42:44;47173.91;;;-146.65;100.00
57094;BME280;42970;50.996;3.706;2023-07-29T04:45:09;47177.91;;;-146.65;100.00
57094;BME280;42970;50.996;3.706;2023-07-29T04:47:34;47179.91;;;-146.65;100.00
57094;BME280;42970;50.996;3.706;2023-07-29T04:50:00;47175.91;;;-146.65;100.00
57094;BME280;42970;50.996;3.706;2023-07-29T04:52:25;47175.91;;;-146.65;100.00
57094;BME280;42970;50.996;3.706;2023-07-29T04:54:50;47177.91;;;-146.65;100.00
57094;BME280;42970;50.996;3.706;2023-07-29T04:57:16;47173.91;;;-146.65;100.00
57094;BME280;42970;50.996;3.706;2023-07-29T04:59:41;47177.91;;;-146.65;100.00
57094;BME280;42970;50.996;3.706;2023-07-29T05:02:06;47171.91;;;-146.65;100.00
57094;BME280;42970;50.996;3.706;2023-07-29T05:04:31;47175.91;;;-146.65;100.00
57094;BME280;42970;50.996;3.706;2023-07-29T05:06:57;47173.91;;;-146.65;100.00
57094;BME280;42970;50.996;3.706;2023-07-29T05:09:22;47177.91;;;-146.65;99.83
57094;BME280;42970;50.996;3.706;2023-07-29T05:11:47;47173.91;;;-146.65;99.86
57094;BME280;42970;50.996;3.706;2023-07-29T05:14:14;47173.91;;;-146.65;99.67
57094;BME280;42970;50.996;3.706;2023-07-29T05:16:40;47175.91;;;-146.65;99.22
57094;BME280;42970;50.996;3.706;2023-07-29T05:19:05;47173.91;;;-146.65;98.76
57094;BME280;42970;50.996;3.706;2023-07-29T05:21:30;47177.91;;;-146.65;98.31
57094;BME280;42970;50.996;3.706;2023-07-29T05:23:55;47175.91;;;-146.65;97.42
57094;BME280;42970;50.996;3.706;2023-07-29T05:26:21;47171.91;;;-146.65;96.31
57094;BME280;42970;50.996;3.706;2023-07-29T05:28:47;47175.91;;;-146.65;96.14
57094;BME280;42970;50.996;3.706;2023-07-29T05:31:12;47175.91;;;-146.65;95.28
57094;BME280;42970;50.996;3.706;2023-07-29T05:33:37;47177.91;;;-146.65;94.75
57094;BME280;42970;50.996;3.706;2023-07-29T05:36:03;47179.91;;;-146.65;94.39
57094;BME280;42970;50.996;3.706;2023-07-29T05:38:28;47175.91;;;-146.65;93.85
57094;BME280;42970;50.996;3.706;2023-07-29T05:40:54;47177.91;;;-146.65;93.95
57094;BME280;42970;50.996;3.706;2023-07-29T05:43:19;47175.91;;;-146.65;93.32
57094;BME280;42970;50.996;3.706;2023-07-29T05:45:45;47177.91;;;-146.65;93.20
57094;BME280;42970;50.996;3.706;2023-07-29T05:48:10;47175.91;;;-146.65;93.01
57094;BME280;42970;50.996;3.706;2023-07-29T05:50:35;47173.91;;;-146.65;92.70
57094;BME280;42970;50.996;3.706;2023-07-29T05:53:00;47177.91;;;-146.65;93.21
57094;BME280;42970;50.996;3.706;2023-07-29T05:55:26;47177.91;;;-146.65;92.72
57094;BME280;42970;50.996;3.706;2023-07-29T05:57:51;47175.91;;;-146.65;92.65
57094;BME280;42970;50.996;3.706;2023-07-29T06:00:16;47175.91;;;-146.65;91.98
57094;BME280;42970;50.996;3.706;2023-07-29T06:02:42;47175.91;;;-146.65;91.52
57094;BME280;42970;50.996;3.706;2023-07-29T06:05:07;47177.91;;;-146.65;91.38
57094;BME280;42970;50.996;3.706;2023-07-29T06:07:32;47175.91;;;-146.65;90.55
57094;BME280;42970;50.996;3.706;2023-07-29T06:09:59;47173.91;;;-146.65;90.39
57094;BME280;42970;50.996;3.706;2023-07-29T06:12:24;47175.91;;;-146.65;89.10
57094;BME280;42970;50.996;3.706;2023-07-29T06:14:50;47179.91;;;-146.65;89.24
57094;BME280;42970;50.996;3.706;2023-07-29T06:17:15;47175.91;;;-146.65;90.30
57094;BME280;42970;50.996;3.706;2023-07-29T06:19:40;47175.91;;;-146.65;89.78
57094;BME280;42970;50.996;3.706;2023-07-29T06:22:06;47175.91;;;-146.65;90.06
57094;BME280;42970;50.996;3.706;2023-07-29T06:24:31;47175.91;;;-146.65;89.81
57094;BME280;42970;50.996;3.706;2023-07-29T06:26:57;47175.91;;;-146.65;90.16
57094;BME280;42970;50.996;3.706;2023-07-29T06:29:23;47177.91;;;-146.65;90.74
57094;BME280;42970;50.996;3.706;2023-07-29T06:31:48;47177.91;;;-146.65;90.43
57094;BME280;42970;50.996;3.706;2023-07-29T06:34:13;47173.91;;;-146.65;90.70
57094;BME280;42970;50.996;3.706;2023-07-29T06:36:38;47173.91;;;-146.65;90.59
57094;BME280;42970;50.996;3.706;2023-07-29T06:39:04;47175.91;;;-146.65;90.15
57094;BME280;42970;50.996;3.706;2023-07-29T06:41:29;47173.91;;;-146.65;90.54
57094;BME280;42970;50.996;3.706;2023-07-29T06:43:55;47181.91;;;-146.65;90.57
57094;BME280;42970;50.996;3.706;2023-07-29T06:46:21;47177.91;;;-146.65;89.83
57094;BME280;42970;50.996;3.706;2023-07-29T06:48:46;47175.91;;;-146.65;88.88
57094;BME280;42970;50.996;3.706;2023-07-29T06:51:11;47173.91;;;-146.65;88.38
57094;BME280;42970;50.996;3.706;2023-07-29T06:53:37;47173.91;;;-146.65;87.77
57094;BME280;42970;50.996;3.706;2023-07-29T06:56:02;47179.91;;;-146.65;87.87
57094;BME280;42970;50.996;3.706;2023-07-29T06:58:28;47175.91;;;-146.65;87.41
57094;BME280;42970;50.996;3.706;2023-07-29T07:00:53;47175.91;;;-146.65;86.68
57094;BME280;42970;50.996;3.706;2023-07-29T07:03:18;47173.91;;;-146.65;86.92
57094;BME280;42970;50.996;3.706;2023-07-29T07:05:43;47173.91;;;-146.65;86.06
57094;BME280;42970;50.996;3.706;2023-07-29T07:08:09;47175.91;;;-146.65;85.28
57094;BME280;42970;50.996;3.706;2023-07-29T07:10:34;47177.91;;;-146.65;85.09
57094;BME280;42970;50.996;3.706;2023-07-29T07:12:59;47175.91;;;-146.65;84.51
57094;BME280;42970;50.996;3.706;2023-07-29T07:15:25;47177.91;;;-146.65;84.26
57094;BME280;42970;50.996;3.706;2023-07-29T07:17:50;47175.91;;;-146.65;83.37
57094;BME280;42970;50.996;3.706;2023-07-29T07:20:16;47175.91;;;-146.65;83.52
57094;BME280;42970;50.996;3.706;2023-07-29T07:22:41;47175.91;;;-146.65;83.10
57094;BME280;42970;50.996;3.706;2023-07-29T07:25:06;47179.91;;;-146.65;83.36
57094;BME280;42970;50.996;3.706;2023-07-29T07:27:32;47175.91;;;-146.65;82.14
57094;BME280;42970;50.996;3.706;2023-07-29T07:29:57;47173.91;;;-146.65;83.28
57094;BME280;42970;50.996;3.706;2023-07-29T07:32:22;47177.91;;;-146.65;83.53
57094;BME280;42970;50.996;3.706;2023-07-29T07:34:48;47173.91;;;-146.65;84.80
57094;BME280;42970;50.996;3.706;2023-07-29T07:37:13;47175.91;;;-146.65;84.19
57094;BME280;42970;50.996;3.706;2023-07-29T07:39:38;47175.91;;;-146.65;83.90
57094;BME280;42970;50.996;3.706;2023-07-29T07:42:04;47173.91;;;-146.65;83.91
57094;BME280;42970;50.996;3.706;2023-07-29T07:44:29;47177.91;;;-146.65;83.44
57094;BME280;42970;50.996;3.706;2023-07-29T07:46:54;47177.91;;;-146.65;83.44
57094;BME280;42970;50.996;3.706;2023-07-29T07:49:20;47175.91;;;-146.65;81.26
57094;BME280;42970;50.996;3.706;2023-07-29T07:51:45;47177.91;;;-146.65;80.34
57094;BME280;42970;50.996;3.706;2023-07-29T07:54:10;47177.91;;;-146.65;80.35
57094;BME280;42970;50.996;3.706;2023-07-29T07:56:36;47175.91;;;-146.65;81.13
57094;BME280;42970;50.996;3.706;2023-07-29T07:59:01;47175.91;;;-146.65;81.81
57094;BME280;42970;50.996;3.706;2023-07-29T08:01:26;47175.91;;;-146.65;81.24
57094;BME280;42970;50.996;3.706;2023-07-29T08:03:52;47175.91;;;-146.65;81.25
57094;BME280;42970;50.996;3.706;2023-07-29T08:06:17;47181.91;;;-146.65;81.73
57094;BME280;42970;50.996;3.706;2023-07-29T08:08:42;47179.91;;;-146.65;80.57
57094;BME280;42970;50.996;3.706;2023-07-29T08:11:07;47177.91;;;-146.65;78.79
57094;BME280;42970;50.996;3.706;2023-07-29T08:13:33;47177.91;;;-146.65;79.01
57094;BME280;42970;50.996;3.706;2023-07-29T08:15:58;47177.91;;;-146.65;78.92
57094;BME280;42970;50.996;3.706;2023-07-29T08:18:23;47175.91;;;-146.65;76.48
57094;BME280;42970;50.996;3.706;2023-07-29T08:20:55;47173.91;;;-146.65;77.29
57094;BME280;42970;50.996;3.706;2023-07-29T08:23:21;47181.91;;;-146.65;76.74
57094;BME280;42970;50.996;3.706;2023-07-29T08:25:50;47175.91;;;-146.65;76.19
57094;BME280;42970;50.996;3.706;2023-07-29T08:28:16;47179.91;;;-146.65;76.44
57094;BME280;42970;50.996;3.706;2023-07-29T08:30:41;47183.91;;;-146.65;74.90
57094;BME280;42970;50.996;3.706;2023-07-29T08:33:06;47175.91;;;-146.65;73.79
57094;BME280;42970;50.996;3.706;2023-07-29T08:35:31;47181.91;;;-146.65;73.63
57094;BME280;42970;50.996;3.706;2023-07-29T08:37:57;47177.91;;;-146.65;70.95
57094;BME280;42970;50.996;3.706;2023-07-29T08:40:23;47179.91;;;-146.65;71.05
57094;BME280;42970;50.996;3.706;2023-07-29T08:42:52;47181.91;;;-146.65;70.62
57094;BME280;42970;50.996;3.706;2023-07-29T08:45:19;47179.91;;;-146.65;73.64
57094;BME280;42970;50.996;3.706;2023-07-29T08:47:44;47173.91;;;-146.65;72.97
57094;BME280;42970;50.996;3.706;2023-07-29T08:50:09;47181.91;;;-146.65;73.07
57094;BME280;42970;50.996;3.706;2023-07-29T08:52:35;47181.91;;;-146.65;74.08
57094;BME280;42970;50.996;3.706;2023-07-29T08:55:01;47175.91;;;-146.65;74.23
57094;BME280;42970;50.996;3.706;2023-07-29T08:57:26;47173.91;;;-146.65;75.12
57094;BME280;42970;50.996;3.706;2023-07-29T08:59:52;47175.91;;;-146.65;75.81
57094;BME280;42970;50.996;3.706;2023-07-29T09:02:17;47177.91;;;-146.65;76.75
57094;BME280;42970;50.996;3.706;2023-07-29T09:04:43;47179.91;;;-146.65;78.26
57094;BME280;42970;50.996;3.706;2023-07-29T09:07:08;47177.91;;;-146.65;77.94
57094;BME280;42970;50.996;3.706;2023-07-29T09:09:34;47175.91;;;-146.65;77.95
57094;BME280;42970;50.996;3.706;2023-07-29T09:12:00;47175.91;;;-146.65;77.71
57094;BME280;42970;50.996;3.706;2023-07-29T09:14:25;47175.91;;;-146.65;77.48
57094;BME280;42970;50.996;3.706;2023-07-29T09:16:51;47177.91;;;-146.65;77.48
57094;BME280;42970;50.996;3.706;2023-07-29T09:19:17;47179.91;;;-146.65;75.99
57094;BME280;42970;50.996;3.706;2023-07-29T09:21:42;47177.91;;;-146.65;75.71
57094;BME280;42970;50.996;3.706;2023-07-29T09:24:07;47179.91;;;-146.65;73.62
57094;BME280;42970;50.996;3.706;2023-07-29T09:26:33;47181.91;;;-146.65;74.66
57094;BME280;42970;50.996;3.706;2023-07-29T09:29:00;47179.91;;;-146.65;72.79
57094;BME280;42970;50.996;3.706;2023-07-29T09:31:27;47175.91;;;-146.65;73.37
57094;BME280;42970;50.996;3.706;2023-07-29T09:34:03;47177.91;;;-146.65;72.48
57094;BME280;42970;50.996;3.706;2023-07-29T09:36:30;47179.91;;;-146.65;74.81
57094;BME280;42970;50.996;3.706;2023-07-29T09:38:55;47177.91;;;-146.65;74.95
57094;BME280;42970;50.996;3.706;2023-07-29T09:41:25;47177.91;;;-146.65;76.58
57094;BME280;42970;50.996;3.706;2023-07-29T09:44:00;47183.91;;;-146.65;76.19
57094;BME280;42970;50.996;3.706;2023-07-29T09:46:31;47179.91;;;-146.65;76.77
57094;BME280;42970;50.996;3.706;2023-07-29T09:48:56;47177.91;;;-146.65;76.78
57094;BME280;42970;50.996;3.706;2023-07-29T09:51:22;47177.91;;;-146.65;76.55
57094;BME280;42970;50.996;3.706;2023-07-29T09:53:47;47181.91;;;-146.65;75.30
57094;BME280;42970;50.996;3.706;2023-07-29T09:56:14;47181.91;;;-146.65;74.37
57094;BME280;42970;50.996;3.706;2023-07-29T09:58:40;47179.91;;;-146.65;73.55
57094;BME280;42970;50.996;3.706;2023-07-29T10:01:08;47177.91;;;-146.65;73.13
57094;BME280;42970;50.996;3.706;2023-07-29T10:03:34;47177.91;;;-146.65;74.16
57094;BME280;42970;50.996;3.706;2023-07-29T10:06:03;47177.91;;;-146.65;74.94
57094;BME280;42970;50.996;3.706;2023-07-29T10:08:30;47175.91;;;-146.65;77.54
57094;BME280;42970;50.996;3.706;2023-07-29T10:10:59;47173.91;;;-146.65;77.70
57094;BME280;42970;50.996;3.706;2023-07-29T10:13:25;47175.91;;;-146.65;78.11
57094;BME280;42970;50.996;3.706;2023-07-29T10:15:52;47175.91;;;-146.65;79.84
57094;BME280;42970;50.996;3.706;2023-07-29T10:18:18;47177.91;;;-146.65;83.92
57094;BME280;42970;50.996;3.706;2023-07-29T10:20:45;47179.91;;;-146.65;85.83
57094;BME280;42970;50.996;3.706;2023-07-29T10:23:13;47175.91;;;-146.65;89.26
57094;BME280;42970;50.996;3.706;2023-07-29T10:25:47;47175.91;;;-146.65;95.24
57094;BME280;42970;50.996;3.706;2023-07-29T10:28:15;47179.91;;;-146.65;95.52
57094;BME280;42970;50.996;3.706;2023-07-29T10:30:44;47177.91;;;-146.65;96.95
57094;BME280;42970;50.996;3.706;2023-07-29T10:33:09;47175.91;;;-146.65;98.79
57094;BME280;42970;50.996;3.706;2023-07-29T10:35:36;47177.91;;;-146.65;99.43
57094;BME280;42970;50.996;3.706;2023-07-29T10:38:02;47179.91;;;-146.65;99.77
57094;BME280;42970;50.996;3.706;2023-07-29T10:40:49;47181.91;;;-146.65;100.00
57094;BME280;42970;50.996;3.706;2023-07-29T10:43:19;47177.91;;;-146.65;100.00
57094;BME280;42970;50.996;3.706;2023-07-29T10:45:48;47175.91;;;-146.65;100.00
57094;BME280;42970;50.996;3.706;2023-07-29T10:48:39;47175.91;;;-146.65;100.00
57094;BME280;42970;50.996;3.706;2023-07-29T10:53:46;47177.91;;;-146.65;100.00
57094;BME280;42970;50.996;3.706;2023-07-29T10:56:12;47177.91;;;-146.65;100.00
57094;BME280;42970;50.996;3.706;2023-07-29T10:58:37;47175.91;;;-146.65;100.00
57094;BME280;42970;50.996;3.706;2023-07-29T11:01:02;47179.91;;;-146.65;100.00
57094;BME280;42970;50.996;3.706;2023-07-29T11:03:37;47177.91;;;-146.65;100.00
57094;BME280;42970;50.996;3.706;2023-07-29T11:06:04;47175.91;;;-146.65;100.00
57094;BME280;42970;50.996;3.706;2023-07-29T11:08:29;47177.91;;;-146.65;100.00
57094;BME280;42970;50.996;3.706;2023-07-29T11:13:25;47175.91;;;-146.65;99.55
57094;BME280;42970;50.996;3.706;2023-07-29T11:15:51;47175.91;;;-146.65;100.00
57094;BME280;42970;50.996;3.706;2023-07-29T11:18:18;47177.91;;;-146.65;100.00
57094;BME280;42970;50.996;3.706;2023-07-29T11:20:44;47179.91;;;-146.65;100.00
57094;BME280;42970;50.996;3.706;2023-07-29T11:23:10;47175.91;;;-146.65;99.56
57094;BME280;42970;50.996;3.706;2023-07-29T11:25:35;47175.91;;;-146.65;97.45
57094;BME280;42970;50.996;3.706;2023-07-29T11:28:01;47175.91;;;-146.65;95.08
57094;BME280;42970;50.996;3.706;2023-07-29T11:30:26;47177.91;;;-146.65;94.46
57094;BME280;42970;50.996;3.706;2023-07-29T11:32:53;47179.91;;;-146.65;92.20
57094;BME280;42970;50.996;3.706;2023-07-29T11:35:18;47175.91;;;-146.65;91.74
57094;BME280;42970;50.996;3.706;2023-07-29T11:37:45;47179.91;;;-146.65;88.30
57094;BME280;42970;50.996;3.706;2023-07-29T11:40:15;47177.91;;;-146.65;79.44
57094;BME280;42970;50.996;3.706;2023-07-29T11:42:40;47175.91;;;-146.65;71.83
57094;BME280;42970;50.996;3.706;2023-07-29T11:45:06;47179.91;;;-146.65;70.24
57094;BME280;42970;50.996;3.706;2023-07-29T11:47:32;47175.91;;;-146.65;66.03
57094;BME280;42970;50.996;3.706;2023-07-29T11:50:00;47181.91;;;-146.65;65.20
57094;BME280;42970;50.996;3.706;2023-07-29T11:52:27;47181.91;;;-146.65;61.66
57094;BME280;42970;50.996;3.706;2023-07-29T11:54:53;47187.91;;;-146.65;62.06
57094;BME280;42970;50.996;3.706;2023-07-29T11:57:18;47177.91;;;-146.65;62.64
57094;BME280;42970;50.996;3.706;2023-07-29T11:59:43;47179.91;;;-146.65;59.54
57094;BME280;42970;50.996;3.706;2023-07-29T12:02:16;47181.91;;;-146.65;60.45
57094;BME280;42970;50.996;3.706;2023-07-29T12:04:41;47181.91;;;-146.65;53.10
57094;BME280;42970;50.996;3.706;2023-07-29T12:07:08;47181.91;;;-146.65;57.00
57094;BME280;42970;50.996;3.706;2023-07-29T12:09:33;47181.91;;;-146.65;55.03
57094;BME280;42970;50.996;3.706;2023-07-29T12:11:59;47179.91;;;-146.65;58.77
57094;BME280;42970;50.996;3.706;2023-07-29T12:14:26;47183.91;;;-146.65;58.10
57094;BME280;42970;50.996;3.706;2023-07-29T12:16:51;47179.91;;;-146.65;62.03
57094;BME280;42970;50.996;3.706;2023-07-29T12:19:17;47179.91;;;-146.65;54.58
57094;BME280;42970;50.996;3.706;2023-07-29T12:21:43;47181.91;;;-146.65;54.40
57094;BME280;42970;50.996;3.706;2023-07-29T12:24:09;47179.91;;;-146.65;56.85
57094;BME280;42970;50.996;3.706;2023-07-29T12:26:35;47179.91;;;-146.65;49.85
57094;BME280;42970;50.996;3.706;2023-07-29T12:29:11;47181.91;;;-146.65;47.72
57094;BME280;42970;50.996;3.706;2023-07-29T12:31:37;47181.91;;;-146.65;52.06
57094;BME280;42970;50.996;3.706;2023-07-29T12:34:02;47175.91;;;-146.65;54.74
57094;BME280;42970;50.996;3.706;2023-07-29T12:36:45;47179.91;;;-146.65;60.94
57094;BME280;42970;50.996;3.706;2023-07-29T12:39:21;47181.91;;;-146.65;60.30